createdAt,value
2022-10-17T00:00:15.753Z,94.59
2022-10-17T00:02:44.445Z,94.55
2022-10-17T00:05:15.686Z,95.17
2022-10-17T00:07:46.905Z,97.29
2022-10-17T00:10:18.754Z,97.06
2022-10-17T00:12:52.162Z,96.75
2022-10-17T00:15:21.965Z,95.48
2022-10-17T00:17:51.502Z,97.26
2022-10-17T00:20:20.612Z,98.48
2022-10-17T00:22:49.684Z,98.38
2022-10-17T00:25:18.911Z,99.37
2022-10-17T00:27:47.693Z,98.93
2022-10-17T00:30:20.490Z,99.29
2022-10-17T00:32:49.382Z,99.55
2022-10-17T00:35:18.271Z,98.63
2022-10-17T00:37:49.416Z,98.81
2022-10-17T00:40:19.380Z,100.00
2022-10-17T00:42:51.258Z,100.00
2022-10-17T00:45:25.140Z,99.38
2022-10-17T00:47:59.072Z,97.78
2022-10-17T00:50:29.434Z,98.51
2022-10-17T00:53:04.017Z,98.40
2022-10-17T00:55:40.186Z,97.56
2022-10-17T00:58:09.474Z,98.26
2022-10-17T01:00:44.085Z,99.18
2022-10-17T01:03:13.212Z,99.31
2022-10-17T01:05:43.471Z,99.84
2022-10-17T01:08:12.496Z,99.42
2022-10-17T01:10:55.953Z,99.82
2022-10-17T01:13:31.479Z,98.87
2022-10-17T01:16:12.875Z,97.78
2022-10-17T01:18:57.447Z,98.01
2022-10-17T01:21:32.681Z,99.38
2022-10-17T01:24:35.252Z,100.00
2022-10-17T01:27:43.770Z,99.52
2022-10-17T01:30:55.518Z,100.00
2022-10-17T01:33:39.137Z,100.00
2022-10-17T01:36:13.093Z,100.00
2022-10-17T01:38:49.355Z,100.00
2022-10-17T01:41:28.842Z,100.00
2022-10-17T01:44:05.078Z,100.00
2022-10-17T01:46:38.222Z,100.00
2022-10-17T01:49:11.290Z,100.00
2022-10-17T01:51:42.606Z,99.68
2022-10-17T01:54:15.265Z,99.99
2022-10-17T01:56:47.140Z,100.00
2022-10-17T01:59:20.641Z,100.00
2022-10-17T02:01:53.515Z,100.00
2022-10-17T02:04:25.322Z,100.00
2022-10-17T02:06:54.113Z,100.00
2022-10-17T02:09:25.400Z,100.00
2022-10-17T02:12:22.419Z,100.00
2022-10-17T02:15:05.320Z,100.00
2022-10-17T02:17:46.749Z,100.00
2022-10-17T02:20:25.018Z,100.00
2022-10-17T02:23:04.170Z,100.00
2022-10-17T02:25:45.112Z,100.00
2022-10-17T02:28:22.362Z,100.00
2022-10-17T02:30:57.290Z,100.00
2022-10-17T02:33:30.761Z,100.00
2022-10-17T02:36:04.913Z,100.00
2022-10-17T02:38:35.586Z,100.00
2022-10-17T02:41:07.357Z,100.00
2022-10-17T02:43:38.078Z,100.00
2022-10-17T02:46:10.226Z,100.00
2022-10-17T02:48:43.132Z,100.00
2022-10-17T02:51:25.300Z,100.00
2022-10-17T02:54:07.517Z,100.00
2022-10-17T02:56:45.327Z,100.00
2022-10-17T02:59:18.646Z,100.00
2022-10-17T03:01:48.142Z,100.00
2022-10-17T03:04:22.178Z,100.00
2022-10-17T03:06:55.262Z,100.00
2022-10-17T03:09:25.238Z,100.00
2022-10-17T03:11:54.413Z,100.00
2022-10-17T03:14:25.647Z,100.00
2022-10-17T03:16:54.598Z,100.00
2022-10-17T03:19:24.094Z,100.00
2022-10-17T03:21:56.562Z,100.00
2022-10-17T03:24:27.742Z,100.00
2022-10-17T03:26:56.719Z,100.00
2022-10-17T03:29:25.821Z,100.00
2022-10-17T03:31:56.026Z,100.00
2022-10-17T03:34:27.438Z,100.00
2022-10-17T03:36:59.913Z,100.00
2022-10-17T03:39:30.669Z,100.00
2022-10-17T03:42:00.164Z,100.00
2022-10-17T03:44:32.172Z,100.00
2022-10-17T03:47:01.785Z,100.00
2022-10-17T03:49:33.174Z,100.00
2022-10-17T03:52:04.045Z,100.00
2022-10-17T03:54:33.255Z,100.00
2022-10-17T03:57:04.369Z,100.00
2022-10-17T03:59:35.706Z,100.00
2022-10-17T04:02:09.375Z,100.00
2022-10-17T04:04:38.078Z,100.00
2022-10-17T04:07:21.078Z,100.00
2022-10-17T04:09:50.848Z,100.00
2022-10-17T04:12:21.917Z,100.00
2022-10-17T04:14:53.378Z,100.00
2022-10-17T04:17:22.904Z,100.00
2022-10-17T04:19:51.887Z,100.00
2022-10-17T04:22:26.937Z,100.00
2022-10-17T04:24:56.058Z,100.00
2022-10-17T04:27:33.071Z,100.00
2022-10-17T04:30:04.905Z,100.00
2022-10-17T04:32:38.003Z,100.00
2022-10-17T04:35:26.951Z,100.00
2022-10-17T04:38:04.708Z,100.00
2022-10-17T04:40:33.704Z,100.00
2022-10-17T04:43:04.843Z,100.00
2022-10-17T04:45:37.803Z,100.00
2022-10-17T04:48:08.254Z,100.00
2022-10-17T04:50:37.421Z,100.00
2022-10-17T04:53:32.373Z,100.00
2022-10-17T04:56:01.430Z,100.00
2022-10-17T04:58:31.097Z,100.00
2022-10-17T05:01:06.413Z,100.00
2022-10-17T05:03:38.806Z,100.00
2022-10-17T05:06:09.297Z,100.00
2022-10-17T05:08:41.321Z,100.00
2022-10-17T05:11:18.107Z,100.00
2022-10-17T05:13:51.481Z,100.00
2022-10-17T05:16:20.702Z,100.00
2022-10-17T05:18:53.216Z,100.00
2022-10-17T05:21:23.619Z,100.00
2022-10-17T05:23:53.985Z,100.00
2022-10-17T05:26:23.559Z,100.00
2022-10-17T05:28:53.242Z,100.00
2022-10-17T05:31:27.347Z,100.00
2022-10-17T05:34:01.971Z,100.00
2022-10-17T05:36:34.909Z,100.00
2022-10-17T05:39:08.754Z,100.00
2022-10-17T05:41:39.052Z,100.00
2022-10-17T05:44:08.007Z,100.00
2022-10-17T05:46:42.005Z,100.00
2022-10-17T05:49:19.543Z,100.00
2022-10-17T05:51:54.461Z,100.00
2022-10-17T05:54:24.990Z,100.00
2022-10-17T05:56:54.203Z,100.00
2022-10-17T05:59:26.567Z,100.00
2022-10-17T06:01:59.834Z,100.00
2022-10-17T06:04:28.861Z,100.00
2022-10-17T06:06:57.496Z,100.00
2022-10-17T06:09:27.552Z,100.00
2022-10-17T06:11:59.251Z,100.00
2022-10-17T06:14:27.945Z,100.00
2022-10-17T06:17:02.277Z,100.00
2022-10-17T06:19:33.736Z,100.00
2022-10-17T06:22:02.627Z,100.00
2022-10-17T06:24:35.370Z,100.00
2022-10-17T06:27:10.929Z,100.00
2022-10-17T06:29:42.310Z,100.00
2022-10-17T06:32:14.911Z,100.00
2022-10-17T06:34:46.658Z,100.00
2022-10-17T06:37:16.376Z,100.00
2022-10-17T06:39:48.363Z,100.00
2022-10-17T06:42:21.329Z,100.00
2022-10-17T06:45:06.361Z,100.00
2022-10-17T06:47:44.753Z,100.00
2022-10-17T06:50:29.418Z,100.00
2022-10-17T06:53:14.666Z,100.00
2022-10-17T06:56:04.699Z,100.00
2022-10-17T06:58:49.444Z,100.00
2022-10-17T07:01:37.528Z,100.00
2022-10-17T07:04:07.119Z,100.00
2022-10-17T07:06:39.737Z,100.00
2022-10-17T07:09:14.520Z,100.00
2022-10-17T07:11:44.908Z,100.00
2022-10-17T07:14:18.471Z,100.00
2022-10-17T07:16:48.433Z,100.00
2022-10-17T07:19:20.841Z,100.00
2022-10-17T07:21:52.325Z,100.00
2022-10-17T07:24:23.351Z,100.00
2022-10-17T07:27:11.035Z,100.00
2022-10-17T07:29:39.896Z,100.00
2022-10-17T07:32:18.215Z,100.00
2022-10-17T07:34:47.128Z,100.00
2022-10-17T07:37:18.746Z,100.00
2022-10-17T07:39:54.274Z,100.00
2022-10-17T07:42:25.081Z,100.00
2022-10-17T07:44:58.243Z,100.00
2022-10-17T07:47:31.419Z,100.00
2022-10-17T07:50:06.376Z,100.00
2022-10-17T07:52:35.545Z,100.00
2022-10-17T07:55:13.440Z,100.00
2022-10-17T07:57:49.186Z,100.00
2022-10-17T08:00:18.512Z,100.00
2022-10-17T08:02:49.760Z,100.00
2022-10-17T08:05:18.616Z,100.00
2022-10-17T08:07:47.378Z,100.00
2022-10-17T08:10:19.606Z,100.00
2022-10-17T08:12:52.329Z,100.00
2022-10-17T08:15:26.797Z,100.00
2022-10-17T08:17:58.166Z,100.00
2022-10-17T08:20:27.147Z,100.00
2022-10-17T08:22:56.543Z,100.00
2022-10-17T08:25:27.614Z,100.00
2022-10-17T08:28:00.859Z,100.00
2022-10-17T08:30:32.023Z,100.00
2022-10-17T08:33:00.707Z,100.00
2022-10-17T08:35:32.363Z,100.00
2022-10-17T08:38:03.183Z,100.00
2022-10-17T08:40:35.449Z,100.00
2022-10-17T08:43:35.385Z,100.00
2022-10-17T08:46:07.702Z,100.00
2022-10-17T08:48:46.721Z,100.00
2022-10-17T08:51:22.819Z,100.00
2022-10-17T08:53:56.584Z,100.00
2022-10-17T08:56:48.158Z,100.00
2022-10-17T08:59:27.053Z,100.00
2022-10-17T09:02:04.025Z,100.00
2022-10-17T09:04:52.022Z,100.00
2022-10-17T09:07:33.098Z,100.00
2022-10-17T09:10:15.607Z,100.00
2022-10-17T09:12:52.845Z,100.00
2022-10-17T09:15:51.756Z,100.00
2022-10-17T09:18:27.018Z,100.00
2022-10-17T09:21:04.748Z,100.00
2022-10-17T09:23:42.450Z,100.00
2022-10-17T09:26:14.644Z,100.00
2022-10-17T09:28:44.329Z,100.00
2022-10-17T09:31:21.404Z,100.00
2022-10-17T09:33:54.892Z,100.00
2022-10-17T09:36:27.015Z,100.00
2022-10-17T09:38:57.751Z,100.00
2022-10-17T09:41:44.857Z,100.00
2022-10-17T09:44:21.648Z,100.00
2022-10-17T09:47:11.379Z,100.00
2022-10-17T09:49:44.797Z,100.00
2022-10-17T09:52:17.690Z,100.00
2022-10-17T09:54:48.937Z,100.00
2022-10-17T09:57:19.648Z,100.00
2022-10-17T09:59:56.848Z,100.00
2022-10-17T10:02:29.162Z,100.00
2022-10-17T10:05:05.896Z,100.00
2022-10-17T10:07:39.194Z,100.00
2022-10-17T10:10:28.265Z,100.00
2022-10-17T10:13:06.607Z,100.00
2022-10-17T10:15:48.401Z,100.00
2022-10-17T10:18:38.670Z,100.00
2022-10-17T10:21:11.378Z,100.00
2022-10-17T10:23:41.735Z,100.00
2022-10-17T10:26:26.850Z,100.00
2022-10-17T10:29:00.054Z,100.00
2022-10-17T10:31:33.170Z,100.00
2022-10-17T10:34:04.742Z,100.00
2022-10-17T10:37:05.142Z,100.00
2022-10-17T10:39:43.176Z,100.00
2022-10-17T10:42:26.349Z,100.00
2022-10-17T10:44:58.959Z,100.00
2022-10-17T10:47:32.245Z,100.00
2022-10-17T10:50:25.624Z,100.00
2022-10-17T10:53:13.005Z,100.00
2022-10-17T10:55:48.961Z,100.00
2022-10-17T10:58:29.926Z,100.00
2022-10-17T11:01:03.398Z,100.00
2022-10-17T11:03:37.138Z,100.00
2022-10-17T11:06:14.944Z,100.00
2022-10-17T11:08:49.396Z,100.00
2022-10-17T11:11:27.614Z,100.00
2022-10-17T11:14:01.776Z,100.00
2022-10-17T11:16:37.103Z,100.00
2022-10-17T11:19:14.058Z,100.00
2022-10-17T11:21:48.521Z,100.00
2022-10-17T11:24:24.796Z,100.00
2022-10-17T11:27:00.451Z,100.00
2022-10-17T11:29:32.211Z,100.00
2022-10-17T11:32:06.751Z,100.00
2022-10-17T11:34:41.925Z,100.00
2022-10-17T11:37:17.505Z,100.00
2022-10-17T11:39:51.531Z,100.00
2022-10-17T11:42:24.763Z,100.00
2022-10-17T11:45:01.512Z,100.00
2022-10-17T11:47:40.346Z,100.00
2022-10-17T11:53:15.401Z,100.00
2022-10-17T11:55:45.424Z,100.00
2022-10-17T11:58:26.791Z,100.00
2022-10-17T12:01:08.029Z,100.00
2022-10-17T12:03:49.661Z,100.00
2022-10-17T12:06:29.735Z,100.00
2022-10-17T12:09:11.968Z,100.00
2022-10-17T12:11:54.049Z,100.00
2022-10-17T12:14:43.665Z,100.00
2022-10-17T12:17:35.458Z,100.00
2022-10-17T12:20:27.411Z,100.00
2022-10-17T12:22:58.829Z,100.00
2022-10-17T12:25:31.625Z,100.00
2022-10-17T12:28:14.335Z,100.00
2022-10-17T12:30:52.708Z,100.00
2022-10-17T12:33:23.955Z,100.00
2022-10-17T12:36:46.969Z,100.00
2022-10-17T12:39:54.262Z,100.00
2022-10-17T12:42:50.557Z,100.00
2022-10-17T12:45:48.841Z,100.00
2022-10-17T12:48:55.123Z,100.00
2022-10-17T12:51:40.519Z,100.00
2022-10-17T12:54:14.191Z,100.00
2022-10-17T12:56:47.810Z,100.00
2022-10-17T12:59:23.572Z,100.00
2022-10-17T13:01:59.787Z,100.00
2022-10-17T13:04:31.004Z,100.00
2022-10-17T13:07:02.926Z,100.00
2022-10-17T13:09:34.785Z,100.00
2022-10-17T13:12:06.877Z,100.00
2022-10-17T13:14:42.302Z,100.00
2022-10-17T13:17:24.003Z,100.00
2022-10-17T13:19:53.388Z,99.75
2022-10-17T13:22:25.134Z,98.70
2022-10-17T13:25:06.394Z,98.38
2022-10-17T13:27:36.549Z,97.60
2022-10-17T13:30:24.769Z,96.31
2022-10-17T13:32:59.141Z,97.24
2022-10-17T13:38:27.021Z,95.49
2022-10-17T13:41:11.036Z,96.71
2022-10-17T13:43:45.848Z,97.27
2022-10-17T13:46:36.741Z,98.14
2022-10-17T13:49:23.202Z,96.28
2022-10-17T13:51:55.979Z,96.82
2022-10-17T13:54:35.240Z,96.78
2022-10-17T13:57:17.115Z,97.09
2022-10-17T13:59:50.487Z,97.15
2022-10-17T14:02:23.556Z,96.88
2022-10-17T14:05:19.767Z,96.87
2022-10-17T14:10:43.537Z,96.49
2022-10-17T14:13:23.575Z,96.27
2022-10-17T14:15:53.940Z,95.69
2022-10-17T14:18:33.275Z,95.46
2022-10-17T14:24:29.366Z,95.19
2022-10-17T14:27:01.301Z,94.06
2022-10-17T14:29:34.417Z,93.98
2022-10-17T14:32:08.591Z,93.62
2022-10-17T14:34:38.628Z,94.55
2022-10-17T14:37:13.852Z,94.52
2022-10-17T14:39:42.670Z,94.43
2022-10-17T14:42:42.143Z,93.33
2022-10-17T14:45:19.105Z,93.13
2022-10-17T14:47:54.262Z,93.91
2022-10-17T14:50:27.031Z,93.98
2022-10-17T14:53:06.027Z,93.68
2022-10-17T14:55:36.656Z,93.74
2022-10-17T14:58:17.936Z,93.85
2022-10-17T15:00:46.748Z,94.87
2022-10-17T15:03:46.475Z,94.43
2022-10-17T15:06:21.215Z,93.55
2022-10-17T15:08:51.544Z,92.84
2022-10-17T15:11:23.041Z,92.00
2022-10-17T15:13:51.798Z,91.38
2022-10-17T15:16:25.486Z,91.25
2022-10-17T15:18:55.243Z,92.24
2022-10-17T15:21:39.194Z,93.17
2022-10-17T15:24:12.005Z,93.85
2022-10-17T15:26:43.173Z,93.64
2022-10-17T15:29:16.497Z,93.95
2022-10-17T15:31:45.341Z,94.56
2022-10-17T15:34:14.349Z,95.29
2022-10-17T15:36:49.930Z,95.29
2022-10-17T15:39:23.128Z,94.29
2022-10-17T15:41:51.796Z,94.95
2022-10-17T15:44:23.041Z,95.05
2022-10-17T15:46:56.666Z,93.79
2022-10-17T15:49:25.405Z,94.92
2022-10-17T15:51:55.411Z,95.39
2022-10-17T15:54:25.859Z,94.68
2022-10-17T15:56:56.488Z,94.06
2022-10-17T15:59:35.449Z,94.86
2022-10-17T16:02:04.088Z,93.79
2022-10-17T16:04:35.604Z,94.52
2022-10-17T16:07:04.556Z,94.83
2022-10-17T16:09:35.080Z,94.71
2022-10-17T16:12:04.537Z,95.27
2022-10-17T16:14:35.484Z,94.56
2022-10-17T16:17:04.383Z,95.37
2022-10-17T16:19:33.151Z,95.91
2022-10-17T16:22:04.699Z,94.63
2022-10-17T16:24:37.400Z,94.38
2022-10-17T16:27:06.501Z,94.32
2022-10-17T16:29:35.622Z,95.88
2022-10-17T16:32:04.362Z,96.88
2022-10-17T16:34:33.581Z,96.46
2022-10-17T16:37:02.250Z,96.46
2022-10-17T16:39:31.192Z,96.19
2022-10-17T16:42:03.958Z,95.76
2022-10-17T16:44:34.863Z,95.98
2022-10-17T16:47:03.989Z,96.23
2022-10-17T16:49:35.229Z,96.07
2022-10-17T16:52:06.696Z,95.66
2022-10-17T16:54:35.584Z,96.08
2022-10-17T16:57:06.209Z,96.54
2022-10-17T16:59:35.237Z,96.93
2022-10-17T17:02:04.006Z,97.23
2022-10-17T17:04:32.853Z,96.84
2022-10-17T17:07:04.508Z,96.52
2022-10-17T17:09:35.775Z,96.28
2022-10-17T17:12:06.430Z,96.48
2022-10-17T17:14:35.114Z,95.50
2022-10-17T17:17:03.802Z,95.72
2022-10-17T17:19:35.492Z,95.04
2022-10-17T17:22:04.710Z,95.41
2022-10-17T17:24:33.373Z,95.75
2022-10-17T17:27:02.072Z,95.36
2022-10-17T17:29:32.182Z,95.25
2022-10-17T17:32:00.941Z,95.39
2022-10-17T17:34:32.533Z,95.67
2022-10-17T17:37:01.382Z,96.29
2022-10-17T17:39:30.804Z,96.66
2022-10-17T17:42:00.268Z,96.26
2022-10-17T17:44:29.463Z,95.15
2022-10-17T17:46:59.711Z,95.29
2022-10-17T17:49:28.912Z,95.36
2022-10-17T17:51:57.591Z,95.15
2022-10-17T17:54:26.640Z,94.94
2022-10-17T17:56:55.462Z,94.49
2022-10-17T17:59:24.084Z,95.46
2022-10-17T18:01:52.861Z,94.92
2022-10-17T18:04:23.435Z,95.72
2022-10-17T18:06:52.265Z,95.54
2022-10-17T18:09:24.002Z,95.99
2022-10-17T18:11:55.512Z,96.49
2022-10-17T18:14:25.554Z,97.19
2022-10-17T18:16:57.847Z,97.30
2022-10-17T18:19:28.428Z,97.56
2022-10-17T18:21:57.268Z,97.95
2022-10-17T18:24:25.989Z,98.02
2022-10-17T18:26:59.647Z,97.57
2022-10-17T18:29:31.205Z,97.79
2022-10-17T18:32:01.343Z,98.74
2022-10-17T18:34:31.449Z,98.87
2022-10-17T18:37:02.590Z,98.35
2022-10-17T18:39:31.524Z,97.11
2022-10-17T18:42:00.884Z,96.41
2022-10-17T18:44:30.219Z,97.49
2022-10-17T18:47:03.015Z,98.38
2022-10-17T18:49:35.662Z,98.92
2022-10-17T18:52:04.318Z,98.19
2022-10-17T18:54:33.621Z,98.44
2022-10-17T18:57:03.146Z,98.76
2022-10-17T18:59:31.966Z,98.92
2022-10-17T19:02:00.806Z,98.83
2022-10-17T19:04:31.811Z,99.17
2022-10-17T19:07:02.925Z,99.04
2022-10-17T19:09:31.561Z,99.43
2022-10-17T19:12:00.650Z,99.40
2022-10-17T19:14:30.941Z,99.44
2022-10-17T19:17:00.674Z,99.68
2022-10-17T19:19:29.640Z,99.80
2022-10-17T19:22:05.777Z,99.76
2022-10-17T19:24:34.858Z,99.94
2022-10-17T19:27:07.025Z,99.66
2022-10-17T19:29:36.169Z,99.24
2022-10-17T19:32:12.076Z,99.57
2022-10-17T19:34:47.299Z,99.46
2022-10-17T19:37:17.487Z,99.51
2022-10-17T19:39:46.161Z,99.79
2022-10-17T19:42:17.106Z,100.00
2022-10-17T19:44:45.705Z,99.94
2022-10-17T19:47:16.934Z,100.00
2022-10-17T19:49:49.906Z,100.00
2022-10-17T19:52:20.173Z,99.42
2022-10-17T19:54:48.847Z,99.54
2022-10-17T19:57:17.467Z,99.62
2022-10-17T19:59:46.224Z,99.74
2022-10-17T20:02:14.992Z,99.63
2022-10-17T20:04:54.377Z,100.00
2022-10-17T20:07:30.772Z,100.00
2022-10-17T20:09:59.720Z,100.00
2022-10-17T20:12:29.025Z,100.00
2022-10-17T20:15:00.353Z,100.00
2022-10-17T20:20:07.853Z,100.00
2022-10-17T20:22:41.760Z,100.00
2022-10-17T20:25:12.734Z,98.67
2022-10-17T20:27:41.987Z,99.07
2022-10-17T20:30:11.435Z,98.98
2022-10-17T20:32:40.015Z,99.80
2022-10-17T20:35:09.659Z,99.58
2022-10-17T20:37:41.695Z,99.87
2022-10-17T20:40:43.410Z,100.00
2022-10-17T20:43:02.302Z,100.00
2022-10-17T20:45:50.529Z,100.00
2022-10-17T20:48:20.830Z,100.00
2022-10-17T20:50:52.292Z,100.00
2022-10-17T20:53:37.737Z,100.00
2022-10-17T20:56:12.406Z,100.00
2022-10-17T20:58:41.149Z,100.00
2022-10-17T21:01:11.378Z,100.00
2022-10-17T21:03:43.974Z,99.96
2022-10-17T21:06:15.968Z,100.00
2022-10-17T21:08:45.372Z,100.00
2022-10-17T21:11:18.324Z,100.00
2022-10-17T21:13:48.396Z,100.00
2022-10-17T21:16:19.144Z,100.00
2022-10-17T21:18:49.326Z,99.99
2022-10-17T21:21:19.509Z,99.95
2022-10-17T21:23:50.250Z,100.00
2022-10-17T21:26:20.439Z,100.00
2022-10-17T21:28:50.218Z,100.00
2022-10-17T21:31:20.352Z,100.00
2022-10-17T21:33:53.820Z,100.00
2022-10-17T21:36:23.931Z,100.00
2022-10-17T21:38:55.100Z,100.00
2022-10-17T21:41:28.931Z,100.00
2022-10-17T21:44:00.349Z,100.00
2022-10-17T21:46:29.682Z,100.00
2022-10-17T21:49:00.272Z,100.00
2022-10-17T21:51:29.491Z,100.00
2022-10-17T21:54:00.546Z,100.00
2022-10-17T21:56:32.547Z,100.00
2022-10-17T21:59:01.578Z,100.00
2022-10-17T22:01:36.029Z,100.00
2022-10-17T22:04:07.442Z,100.00
2022-10-17T22:06:40.877Z,100.00
2022-10-17T22:09:13.332Z,100.00
2022-10-17T22:11:45.159Z,100.00
2022-10-17T22:14:15.708Z,100.00
2022-10-17T22:16:46.403Z,100.00
2022-10-17T22:19:17.602Z,100.00
2022-10-17T22:21:48.798Z,100.00
2022-10-17T22:26:51.850Z,100.00
2022-10-17T22:29:20.937Z,100.00
2022-10-17T22:31:49.573Z,100.00
2022-10-17T22:34:20.665Z,100.00
2022-10-17T22:36:49.765Z,100.00
2022-10-17T22:39:18.490Z,100.00
2022-10-17T22:41:47.218Z,100.00
2022-10-17T22:44:17.267Z,100.00
2022-10-17T22:46:46.273Z,100.00
2022-10-17T22:49:19.820Z,100.00
2022-10-17T22:51:48.397Z,100.00
2022-10-17T22:54:19.256Z,100.00
2022-10-17T22:56:47.919Z,100.00
2022-10-17T22:59:18.109Z,100.00
2022-10-17T23:01:46.781Z,100.00
2022-10-17T23:04:22.030Z,100.00
2022-10-17T23:06:51.205Z,100.00
2022-10-17T23:09:19.824Z,100.00
2022-10-17T23:11:48.984Z,100.00
2022-10-17T23:14:19.205Z,100.00
2022-10-17T23:16:48.298Z,100.00
2022-10-17T23:19:17.424Z,100.00
2022-10-17T23:21:46.070Z,100.00
2022-10-17T23:24:14.712Z,100.00
2022-10-17T23:26:45.977Z,100.00
2022-10-17T23:29:14.617Z,100.00
2022-10-17T23:31:44.590Z,100.00
2022-10-17T23:34:16.005Z,100.00
2022-10-17T23:36:44.728Z,100.00
2022-10-17T23:39:15.662Z,100.00
2022-10-17T23:41:44.389Z,100.00
2022-10-17T23:44:13.391Z,100.00
2022-10-17T23:46:42.122Z,100.00
2022-10-17T23:49:14.590Z,100.00
2022-10-17T23:51:43.303Z,100.00
2022-10-17T23:54:14.650Z,100.00
2022-10-17T23:56:45.703Z,100.00
2022-10-17T23:59:14.491Z,100.00
